createdAt,value
2023-05-25T00:00:57.546Z,79.37
2023-05-25T00:02:05.033Z,79.20
2023-05-25T00:03:12.761Z,79.65
2023-05-25T00:04:17.403Z,79.70
2023-05-25T00:05:21.068Z,79.67
2023-05-25T00:06:23.791Z,79.75
2023-05-25T00:07:27.131Z,80.04
2023-05-25T00:08:29.774Z,79.77
2023-05-25T00:09:33.181Z,80.21
2023-05-25T00:10:35.625Z,80.28
2023-05-25T00:11:40.341Z,80.05
2023-05-25T00:12:42.679Z,79.98
2023-05-25T00:13:46.047Z,79.99
2023-05-25T00:14:48.502Z,79.94
2023-05-25T00:15:52.070Z,80.08
2023-05-25T00:16:54.512Z,80.08
2023-05-25T00:17:58.088Z,79.90
2023-05-25T00:19:03.860Z,80.03
2023-05-25T00:20:08.990Z,79.90
2023-05-25T00:21:11.847Z,80.03
2023-05-25T00:23:17.887Z,80.10
2023-05-25T00:24:21.301Z,79.95
2023-05-25T00:25:23.727Z,80.01
2023-05-25T00:26:27.201Z,80.10
2023-05-25T00:27:31.799Z,80.11
2023-05-25T00:28:35.121Z,80.00
2023-05-25T00:29:37.501Z,80.12
2023-05-25T00:30:41.246Z,79.97
2023-05-25T00:31:43.551Z,80.05
2023-05-25T00:32:48.135Z,80.15
2023-05-25T00:33:50.944Z,80.01
2023-05-25T00:34:55.257Z,79.89
2023-05-25T00:36:00.218Z,80.10
2023-05-25T00:37:04.728Z,80.14
2023-05-25T00:38:07.079Z,80.12
2023-05-25T00:39:10.534Z,80.16
2023-05-25T00:40:16.499Z,80.07
2023-05-25T00:41:20.199Z,80.16
2023-05-25T00:42:23.857Z,80.21
2023-05-25T00:43:28.638Z,80.39
2023-05-25T00:44:32.569Z,80.27
2023-05-25T00:45:36.089Z,80.45
2023-05-25T00:46:38.964Z,80.35
2023-05-25T00:47:42.658Z,80.54
2023-05-25T00:48:45.095Z,80.69
2023-05-25T00:49:48.842Z,80.75
2023-05-25T00:50:54.899Z,80.82
2023-05-25T00:51:59.617Z,80.74
2023-05-25T00:53:02.001Z,80.90
2023-05-25T00:54:05.414Z,81.23
2023-05-25T00:55:12.222Z,80.99
2023-05-25T00:56:20.330Z,81.11
2023-05-25T00:57:25.594Z,81.13
2023-05-25T00:58:34.346Z,81.05
2023-05-25T00:59:41.510Z,81.37
2023-05-25T01:00:46.747Z,81.37
2023-05-25T01:01:53.949Z,81.44
2023-05-25T01:02:59.862Z,81.50
2023-05-25T01:04:07.513Z,81.63
2023-05-25T01:05:13.313Z,81.53
2023-05-25T01:06:17.083Z,81.74
2023-05-25T01:07:25.260Z,81.68
2023-05-25T01:08:28.734Z,81.84
2023-05-25T01:09:34.559Z,81.86
2023-05-25T01:10:39.496Z,81.81
2023-05-25T01:11:45.473Z,81.87
2023-05-25T01:12:51.774Z,81.83
2023-05-25T01:13:57.505Z,81.66
2023-05-25T01:15:04.349Z,81.92
2023-05-25T01:16:08.660Z,82.03
2023-05-25T01:17:11.948Z,82.00
2023-05-25T01:18:16.374Z,82.11
2023-05-25T01:19:18.903Z,82.26
2023-05-25T01:20:22.201Z,82.28
2023-05-25T01:21:38.161Z,82.17
2023-05-25T01:22:46.731Z,82.30
2023-05-25T01:23:56.648Z,82.08
2023-05-25T01:25:05.249Z,82.49
2023-05-25T01:26:13.315Z,82.30
2023-05-25T01:27:22.782Z,82.24
2023-05-25T01:28:30.507Z,82.23
2023-05-25T01:29:35.150Z,82.38
2023-05-25T01:30:41.123Z,82.33
2023-05-25T01:31:47.134Z,82.37
2023-05-25T01:32:49.973Z,82.49
2023-05-25T01:33:54.741Z,82.17
2023-05-25T01:34:59.329Z,82.56
2023-05-25T01:36:03.266Z,82.69
2023-05-25T01:37:07.413Z,82.70
2023-05-25T01:38:11.466Z,82.73
2023-05-25T01:39:13.865Z,82.66
2023-05-25T01:40:17.733Z,82.79
2023-05-25T01:41:20.499Z,82.85
2023-05-25T01:42:23.784Z,82.86
2023-05-25T01:43:26.298Z,82.87
2023-05-25T01:44:30.259Z,82.87
2023-05-25T01:45:33.051Z,82.87
2023-05-25T01:46:39.319Z,82.97
2023-05-25T01:47:53.786Z,83.04
2023-05-25T01:49:09.757Z,83.02
2023-05-25T01:50:19.966Z,83.21
2023-05-25T01:51:29.598Z,83.13
2023-05-25T01:52:39.260Z,83.14
2023-05-25T01:53:50.150Z,83.27
2023-05-25T01:54:57.643Z,83.35
2023-05-25T01:56:03.611Z,83.17
2023-05-25T01:57:10.915Z,83.43
2023-05-25T01:58:18.131Z,83.37
2023-05-25T01:59:22.239Z,83.50
2023-05-25T02:00:27.601Z,83.46
2023-05-25T02:01:33.944Z,83.55
2023-05-25T02:02:38.295Z,83.54
2023-05-25T02:03:42.095Z,83.46
2023-05-25T02:04:45.972Z,83.65
2023-05-25T02:05:48.624Z,83.45
2023-05-25T02:06:53.248Z,83.52
2023-05-25T02:07:57.018Z,83.64
2023-05-25T02:09:00.314Z,83.57
2023-05-25T02:10:02.822Z,83.58
2023-05-25T02:11:06.312Z,83.68
2023-05-25T02:12:09.316Z,83.61
2023-05-25T02:13:12.781Z,83.75
2023-05-25T02:14:16.101Z,83.53
2023-05-25T02:15:19.938Z,83.75
2023-05-25T02:16:22.382Z,83.88
2023-05-25T02:17:28.078Z,83.75
2023-05-25T02:18:30.530Z,84.10
2023-05-25T02:19:33.883Z,83.97
2023-05-25T02:20:37.453Z,84.11
2023-05-25T02:21:40.860Z,84.29
2023-05-25T02:22:43.635Z,84.08
2023-05-25T02:23:49.358Z,83.87
2023-05-25T02:24:51.826Z,84.18
2023-05-25T02:25:56.100Z,84.18
2023-05-25T02:26:58.561Z,84.27
2023-05-25T02:28:02.484Z,84.28
2023-05-25T02:29:06.039Z,84.26
2023-05-25T02:30:10.447Z,84.39
2023-05-25T02:31:12.933Z,84.51
2023-05-25T02:32:16.749Z,84.40
2023-05-25T02:33:27.581Z,84.48
2023-05-25T02:34:31.043Z,84.66
2023-05-25T02:35:33.360Z,84.37
2023-05-25T02:36:37.570Z,84.45
2023-05-25T02:37:40.130Z,84.72
2023-05-25T02:38:43.585Z,84.75
2023-05-25T02:39:47.322Z,84.55
2023-05-25T02:40:50.701Z,84.54
2023-05-25T02:41:53.061Z,84.51
2023-05-25T02:42:56.358Z,84.53
2023-05-25T02:43:59.850Z,84.41
2023-05-25T02:45:04.017Z,84.51
2023-05-25T02:46:06.377Z,84.43
2023-05-25T02:47:09.760Z,83.93
2023-05-25T02:48:12.469Z,84.30
2023-05-25T02:49:16.029Z,84.19
2023-05-25T02:50:18.554Z,83.99
2023-05-25T02:51:21.904Z,84.20
2023-05-25T02:52:25.749Z,83.97
2023-05-25T02:53:29.479Z,84.02
2023-05-25T02:54:31.899Z,84.18
2023-05-25T02:55:38.146Z,83.92
2023-05-25T02:56:42.502Z,83.98
2023-05-25T02:57:45.894Z,83.86
2023-05-25T02:58:48.434Z,83.78
2023-05-25T02:59:52.737Z,83.67
2023-05-25T03:01:02.771Z,83.19
2023-05-25T03:02:10.316Z,83.41
2023-05-25T03:03:17.158Z,83.51
2023-05-25T03:04:27.993Z,83.49
2023-05-25T03:05:37.214Z,83.64
2023-05-25T03:06:52.072Z,83.64
2023-05-25T03:07:55.870Z,83.79
2023-05-25T03:09:08.289Z,83.72
2023-05-25T03:10:15.485Z,84.02
2023-05-25T03:11:29.372Z,83.84
2023-05-25T03:12:41.148Z,83.83
2023-05-25T03:13:48.316Z,83.98
2023-05-25T03:14:57.131Z,83.83
2023-05-25T03:16:10.941Z,83.96
2023-05-25T03:17:13.415Z,83.85
2023-05-25T03:18:16.277Z,84.04
2023-05-25T03:19:20.574Z,83.97
2023-05-25T03:20:24.794Z,83.99
2023-05-25T03:21:28.890Z,83.86
2023-05-25T03:22:31.312Z,83.94
2023-05-25T03:23:34.637Z,83.84
2023-05-25T03:24:41.873Z,84.04
2023-05-25T03:25:46.120Z,83.94
2023-05-25T03:26:50.466Z,83.74
2023-05-25T03:27:54.623Z,83.70
2023-05-25T03:28:57.246Z,83.85
2023-05-25T03:30:00.516Z,84.30
2023-05-25T03:31:02.971Z,84.14
2023-05-25T03:32:07.136Z,84.39
2023-05-25T03:33:09.651Z,84.14
2023-05-25T03:34:13.652Z,84.28
2023-05-25T03:35:16.172Z,84.28
2023-05-25T03:36:19.567Z,84.18
2023-05-25T03:37:22.650Z,84.41
2023-05-25T03:38:26.026Z,84.31
2023-05-25T03:39:28.501Z,84.29
2023-05-25T03:40:31.901Z,84.35
2023-05-25T03:41:34.331Z,84.15
2023-05-25T03:42:39.066Z,84.35
2023-05-25T03:43:42.097Z,84.42
2023-05-25T03:44:45.495Z,84.82
2023-05-25T03:45:47.972Z,84.72
2023-05-25T03:46:51.289Z,84.61
2023-05-25T03:47:54.084Z,84.51
2023-05-25T03:48:57.405Z,84.75
2023-05-25T03:49:59.778Z,84.36
2023-05-25T03:51:03.046Z,84.62
2023-05-25T03:52:06.383Z,84.55
2023-05-25T03:53:10.147Z,84.51
2023-05-25T03:54:12.591Z,84.59
2023-05-25T03:55:16.182Z,84.56
2023-05-25T03:56:18.549Z,84.71
2023-05-25T03:57:21.932Z,84.67
2023-05-25T03:58:26.098Z,84.62
2023-05-25T03:59:29.445Z,84.66
2023-05-25T04:00:32.119Z,84.96
2023-05-25T04:01:39.400Z,84.85
2023-05-25T04:02:42.153Z,84.85
2023-05-25T04:03:45.842Z,84.96
2023-05-25T04:04:51.978Z,84.90
2023-05-25T04:05:55.467Z,84.65
2023-05-25T04:06:58.160Z,84.89
2023-05-25T04:08:02.287Z,84.99
2023-05-25T04:09:05.008Z,84.87
2023-05-25T04:10:09.237Z,84.95
2023-05-25T04:11:11.970Z,84.89
2023-05-25T04:12:15.720Z,84.88
2023-05-25T04:13:18.386Z,84.83
2023-05-25T04:14:23.003Z,84.86
2023-05-25T04:15:25.332Z,84.77
2023-05-25T04:16:28.834Z,84.63
2023-05-25T04:17:31.341Z,84.81
2023-05-25T04:18:34.797Z,84.78
2023-05-25T04:19:37.143Z,84.79
2023-05-25T04:20:40.603Z,84.49
2023-05-25T04:21:43.393Z,84.97
2023-05-25T04:22:46.648Z,84.75
2023-05-25T04:23:48.956Z,84.95
2023-05-25T04:24:52.224Z,84.99
2023-05-25T04:25:54.682Z,84.98
2023-05-25T04:26:58.371Z,84.87
2023-05-25T04:28:01.668Z,84.96
2023-05-25T04:29:05.211Z,84.77
2023-05-25T04:30:11.190Z,84.60
2023-05-25T04:31:14.516Z,84.86
2023-05-25T04:32:18.804Z,84.57
2023-05-25T04:33:22.215Z,84.48
2023-05-25T04:34:24.990Z,84.36
2023-05-25T04:35:28.457Z,84.48
2023-05-25T04:36:32.753Z,84.48
2023-05-25T04:37:37.140Z,84.47
2023-05-25T04:38:39.447Z,84.40
2023-05-25T04:39:43.071Z,84.17
2023-05-25T04:40:47.568Z,84.25
2023-05-25T04:41:53.020Z,84.14
2023-05-25T04:42:57.048Z,83.97
2023-05-25T04:45:09.589Z,83.74
2023-05-25T04:46:13.905Z,83.75
2023-05-25T04:47:17.666Z,83.78
2023-05-25T04:48:21.552Z,83.47
2023-05-25T04:49:25.056Z,83.60
2023-05-25T04:50:28.158Z,83.04
2023-05-25T04:51:32.444Z,82.76
2023-05-25T04:52:34.851Z,82.46
2023-05-25T04:53:38.105Z,82.73
2023-05-25T04:54:42.242Z,82.35
2023-05-25T04:55:45.857Z,82.49
2023-05-25T04:56:48.831Z,81.99
2023-05-25T04:57:53.266Z,81.80
2023-05-25T04:58:55.715Z,81.96
2023-05-25T04:59:59.766Z,81.63
2023-05-25T05:01:03.458Z,81.33
2023-05-25T05:02:08.611Z,81.05
2023-05-25T05:03:11.922Z,81.15
2023-05-25T05:04:16.492Z,80.55
2023-05-25T05:05:19.956Z,80.09
2023-05-25T05:06:22.998Z,79.93
2023-05-25T05:07:26.723Z,79.79
2023-05-25T05:08:29.151Z,79.22
2023-05-25T05:09:32.430Z,79.31
2023-05-25T05:10:34.820Z,79.01
2023-05-25T05:11:38.345Z,78.56
2023-05-25T05:12:40.760Z,78.01
2023-05-25T05:13:44.169Z,77.84
2023-05-25T05:14:47.651Z,77.25
2023-05-25T05:15:50.939Z,76.14
2023-05-25T05:16:53.758Z,75.53
2023-05-25T05:17:58.436Z,74.22
2023-05-25T05:19:01.716Z,73.17
2023-05-25T05:20:08.897Z,72.11
2023-05-25T05:21:11.576Z,70.60
2023-05-25T05:22:16.155Z,69.90
2023-05-25T05:23:18.536Z,68.89
2023-05-25T05:24:22.508Z,67.79
2023-05-25T05:25:25.092Z,67.19
2023-05-25T05:26:28.833Z,66.42
2023-05-25T05:27:31.596Z,65.29
2023-05-25T05:28:36.544Z,64.37
2023-05-25T05:29:38.892Z,63.78
2023-05-25T05:30:42.217Z,62.84
2023-05-25T05:31:44.763Z,61.97
2023-05-25T05:32:48.199Z,60.77
2023-05-25T05:33:51.973Z,60.16
2023-05-25T05:34:55.471Z,59.94
2023-05-25T05:35:59.184Z,59.75
2023-05-25T05:37:01.491Z,58.52
2023-05-25T05:38:05.068Z,58.47
2023-05-25T05:39:07.643Z,57.73
2023-05-25T05:40:13.119Z,57.28
2023-05-25T05:41:15.650Z,57.07
2023-05-25T05:42:19.381Z,56.51
2023-05-25T05:43:22.044Z,55.82
2023-05-25T05:44:28.722Z,55.41
2023-05-25T05:45:31.750Z,55.18
2023-05-25T05:46:35.249Z,54.16
2023-05-25T05:47:42.198Z,53.65
2023-05-25T05:48:47.364Z,53.90
2023-05-25T05:49:51.133Z,52.98
2023-05-25T05:50:54.708Z,52.41
2023-05-25T05:51:57.356Z,51.73
2023-05-25T05:53:00.716Z,51.11
2023-05-25T05:54:03.277Z,50.64
2023-05-25T05:55:07.826Z,50.17
2023-05-25T05:56:18.135Z,49.29
2023-05-25T05:57:22.388Z,49.39
2023-05-25T05:58:27.269Z,49.35
2023-05-25T05:59:30.682Z,48.32
2023-05-25T06:00:33.170Z,48.96
2023-05-25T06:01:36.742Z,48.44
2023-05-25T06:02:41.473Z,47.25
2023-05-25T06:03:46.214Z,47.29
2023-05-25T06:04:48.604Z,46.37
2023-05-25T06:05:53.303Z,46.67
2023-05-25T06:06:55.788Z,44.90
2023-05-25T06:07:59.107Z,44.74
2023-05-25T06:09:03.687Z,45.72
2023-05-25T06:10:07.817Z,45.33
2023-05-25T06:11:10.165Z,44.67
2023-05-25T06:12:13.427Z,43.72
2023-05-25T06:13:16.908Z,42.75
2023-05-25T06:14:19.245Z,42.98
2023-05-25T06:15:22.543Z,42.27
2023-05-25T06:16:25.193Z,42.04
2023-05-25T06:17:29.668Z,41.88
2023-05-25T06:18:32.121Z,41.93
2023-05-25T06:19:36.450Z,41.46
2023-05-25T06:20:40.002Z,41.16
2023-05-25T06:21:44.904Z,41.63
2023-05-25T06:22:48.672Z,40.71
2023-05-25T06:23:51.405Z,40.09
2023-05-25T06:24:55.202Z,40.39
2023-05-25T06:25:57.622Z,40.16
2023-05-25T06:27:03.383Z,40.51
2023-05-25T06:28:05.837Z,40.50
2023-05-25T06:29:09.193Z,40.03
2023-05-25T06:30:12.677Z,39.63
2023-05-25T06:31:16.378Z,39.35
2023-05-25T06:32:18.838Z,39.31
2023-05-25T06:33:22.342Z,38.64
2023-05-25T06:34:25.567Z,38.74
2023-05-25T06:35:29.462Z,38.21
2023-05-25T06:36:32.736Z,37.97
2023-05-25T06:37:38.194Z,37.81
2023-05-25T06:38:40.739Z,37.82
2023-05-25T06:39:44.456Z,37.72
2023-05-25T06:40:47.001Z,37.16
2023-05-25T06:41:51.110Z,37.56
2023-05-25T06:42:53.783Z,37.56
2023-05-25T06:43:57.452Z,37.61
2023-05-25T06:44:59.997Z,37.05
2023-05-25T06:46:03.299Z,37.10
2023-05-25T06:47:06.657Z,36.92
2023-05-25T06:48:10.061Z,36.89
2023-05-25T06:49:12.525Z,37.00
2023-05-25T06:50:16.881Z,36.55
2023-05-25T06:51:19.487Z,36.08
2023-05-25T06:52:22.939Z,36.37
2023-05-25T06:53:27.650Z,35.68
2023-05-25T06:54:31.057Z,35.47
2023-05-25T06:55:33.806Z,35.71
2023-05-25T06:56:37.128Z,35.33
2023-05-25T06:57:39.524Z,35.31
2023-05-25T06:58:43.020Z,34.80
2023-05-25T06:59:45.713Z,35.17
2023-05-25T07:00:49.325Z,35.31
2023-05-25T07:01:51.854Z,35.08
2023-05-25T07:02:55.468Z,34.77
2023-05-25T07:03:58.746Z,34.48
2023-05-25T07:05:02.774Z,34.91
2023-05-25T07:06:07.258Z,34.15
2023-05-25T07:07:12.674Z,34.27
2023-05-25T07:08:15.454Z,33.32
2023-05-25T07:09:20.238Z,33.41
2023-05-25T07:10:24.248Z,32.60
2023-05-25T07:11:26.768Z,32.61
2023-05-25T07:12:30.092Z,33.24
2023-05-25T07:13:32.607Z,32.98
2023-05-25T07:14:36.107Z,33.42
2023-05-25T07:15:39.841Z,33.37
2023-05-25T07:16:42.650Z,32.84
2023-05-25T07:17:47.419Z,33.18
2023-05-25T07:18:50.863Z,32.64
2023-05-25T07:19:53.266Z,31.83
2023-05-25T07:20:56.704Z,31.80
2023-05-25T07:22:00.035Z,31.78
2023-05-25T07:23:02.407Z,31.51
2023-05-25T07:24:06.930Z,31.74
2023-05-25T07:25:11.150Z,31.61
2023-05-25T07:26:15.718Z,31.47
2023-05-25T07:27:19.741Z,31.20
2023-05-25T07:28:22.080Z,31.28
2023-05-25T07:29:25.514Z,31.27
2023-05-25T07:30:28.172Z,31.29
2023-05-25T07:31:32.086Z,31.71
2023-05-25T07:32:35.889Z,31.21
2023-05-25T07:33:38.551Z,31.56
2023-05-25T07:34:42.648Z,31.19
2023-05-25T07:35:45.162Z,31.33
2023-05-25T07:36:49.092Z,31.15
2023-05-25T07:37:58.361Z,31.54
2023-05-25T07:39:01.592Z,31.93
2023-05-25T07:40:06.204Z,31.06
2023-05-25T07:41:13.441Z,30.86
2023-05-25T07:42:21.201Z,30.13
2023-05-25T07:43:24.921Z,30.29
2023-05-25T07:44:29.265Z,30.57
2023-05-25T07:45:31.741Z,30.45
2023-05-25T07:46:35.115Z,30.15
2023-05-25T07:47:38.216Z,30.44
2023-05-25T07:48:41.687Z,30.46
2023-05-25T07:49:44.093Z,30.33
2023-05-25T07:50:47.544Z,30.33
2023-05-25T07:51:50.862Z,30.34
2023-05-25T07:52:53.940Z,30.07
2023-05-25T07:53:58.495Z,29.83
2023-05-25T07:55:01.009Z,29.92
2023-05-25T07:56:05.103Z,29.47
2023-05-25T07:57:08.956Z,29.38
2023-05-25T07:58:12.333Z,29.73
2023-05-25T07:59:14.749Z,29.75
2023-05-25T08:00:18.827Z,29.71
2023-05-25T08:01:26.915Z,29.22
2023-05-25T08:02:31.351Z,29.21
2023-05-25T08:03:48.345Z,28.92
2023-05-25T08:04:52.736Z,29.14
2023-05-25T08:05:56.027Z,28.58
2023-05-25T08:06:58.454Z,28.81
2023-05-25T08:08:01.791Z,29.10
2023-05-25T08:09:04.961Z,28.71
2023-05-25T08:10:09.894Z,28.72
2023-05-25T08:11:12.873Z,28.39
2023-05-25T08:13:22.845Z,28.36
2023-05-25T08:14:26.562Z,28.40
2023-05-25T08:15:28.940Z,28.30
2023-05-25T08:16:33.991Z,28.71
2023-05-25T08:17:36.714Z,28.20
2023-05-25T08:18:41.360Z,28.61
2023-05-25T08:19:43.734Z,28.05
2023-05-25T08:20:47.298Z,28.11
2023-05-25T08:21:49.667Z,27.96
2023-05-25T08:22:54.556Z,28.31
2023-05-25T08:23:57.549Z,28.34
2023-05-25T08:25:05.286Z,28.03
2023-05-25T08:26:26.052Z,27.53
2023-05-25T08:27:35.495Z,27.79
2023-05-25T08:28:39.634Z,27.60
2023-05-25T08:29:42.080Z,28.11
2023-05-25T08:30:47.272Z,27.25
2023-05-25T08:31:50.762Z,26.63
2023-05-25T08:32:53.225Z,27.03
2023-05-25T08:33:56.988Z,26.58
2023-05-25T08:35:01.725Z,26.64
2023-05-25T08:36:05.564Z,26.46
2023-05-25T08:37:09.077Z,26.12
2023-05-25T08:38:11.677Z,27.11
2023-05-25T08:39:16.158Z,26.54
2023-05-25T08:40:23.681Z,25.40
2023-05-25T08:41:27.075Z,25.72
2023-05-25T08:42:29.900Z,26.58
2023-05-25T08:43:35.816Z,26.64
2023-05-25T08:44:40.877Z,26.37
2023-05-25T08:45:47.069Z,27.26
2023-05-25T08:46:51.050Z,26.87
2023-05-25T08:47:59.256Z,27.21
2023-05-25T08:49:06.723Z,27.02
2023-05-25T08:50:11.537Z,26.29
2023-05-25T08:51:17.908Z,27.19
2023-05-25T08:52:23.880Z,27.27
2023-05-25T08:53:28.159Z,27.01
2023-05-25T08:54:39.134Z,27.07
2023-05-25T08:55:44.568Z,27.07
2023-05-25T08:56:51.888Z,27.15
2023-05-25T08:57:59.355Z,27.48
2023-05-25T08:59:10.187Z,27.77
2023-05-25T09:00:16.405Z,27.69
2023-05-25T09:01:24.704Z,27.48
2023-05-25T09:02:34.473Z,26.84
2023-05-25T09:03:41.623Z,27.16
2023-05-25T09:04:47.439Z,26.58
2023-05-25T09:05:52.070Z,27.02
2023-05-25T09:07:08.843Z,26.50
2023-05-25T09:08:14.992Z,27.28
2023-05-25T09:09:18.839Z,28.01
2023-05-25T09:10:23.042Z,27.50
2023-05-25T09:11:38.616Z,27.48
2023-05-25T09:12:45.069Z,27.84
2023-05-25T09:13:48.149Z,27.26
2023-05-25T09:14:54.722Z,27.73
2023-05-25T09:15:57.690Z,26.48
2023-05-25T09:17:02.153Z,26.42
2023-05-25T09:18:05.623Z,26.35
2023-05-25T09:19:09.030Z,26.87
2023-05-25T09:20:14.196Z,26.35
2023-05-25T09:21:16.697Z,25.87
2023-05-25T09:22:20.143Z,26.07
2023-05-25T09:23:22.981Z,26.27
2023-05-25T09:24:26.425Z,27.12
2023-05-25T09:25:31.960Z,27.94
2023-05-25T09:26:35.295Z,29.00
2023-05-25T09:27:39.263Z,29.03
2023-05-25T09:28:47.068Z,29.35
2023-05-25T09:29:52.471Z,29.30
2023-05-25T09:30:56.009Z,29.94
2023-05-25T09:31:58.466Z,30.13
2023-05-25T09:33:12.003Z,29.63
2023-05-25T09:34:15.103Z,30.04
2023-05-25T09:35:18.551Z,29.60
2023-05-25T09:36:23.452Z,29.78
2023-05-25T09:37:27.472Z,29.01
2023-05-25T09:38:31.444Z,29.40
2023-05-25T09:39:35.068Z,30.58
2023-05-25T09:40:39.504Z,31.88
2023-05-25T09:41:42.261Z,32.56
2023-05-25T09:42:46.141Z,32.94
2023-05-25T09:45:00.989Z,32.47
2023-05-25T09:46:03.365Z,31.84
2023-05-25T09:47:07.729Z,31.63
2023-05-25T09:48:11.617Z,31.82
2023-05-25T09:49:15.396Z,32.34
2023-05-25T09:50:18.055Z,31.79
2023-05-25T09:51:22.544Z,32.16
2023-05-25T09:52:26.155Z,32.60
2023-05-25T09:53:28.523Z,32.37
2023-05-25T09:54:32.061Z,34.01
2023-05-25T09:55:51.648Z,34.22
2023-05-25T09:56:57.009Z,35.12
2023-05-25T09:58:00.674Z,33.69
2023-05-25T09:59:03.680Z,34.31
2023-05-25T10:00:11.340Z,34.38
2023-05-25T10:01:25.538Z,34.12
2023-05-25T10:02:31.880Z,33.81
2023-05-25T10:03:34.753Z,33.84
2023-05-25T10:04:39.796Z,33.75
2023-05-25T10:05:44.573Z,34.04
2023-05-25T10:06:50.631Z,33.97
2023-05-25T10:07:58.654Z,34.27
2023-05-25T10:09:02.043Z,34.62
2023-05-25T10:10:09.587Z,33.38
2023-05-25T10:11:16.673Z,34.40
2023-05-25T10:12:20.899Z,34.14
2023-05-25T10:13:27.577Z,33.96
2023-05-25T10:14:33.427Z,34.07
2023-05-25T10:15:41.036Z,33.92
2023-05-25T10:16:47.444Z,34.66
2023-05-25T10:17:56.015Z,34.91
2023-05-25T10:19:04.418Z,35.67
2023-05-25T10:20:10.074Z,35.41
2023-05-25T10:21:13.942Z,36.02
2023-05-25T10:22:22.066Z,35.34
2023-05-25T10:23:28.918Z,35.25
2023-05-25T10:24:35.516Z,36.24
2023-05-25T10:25:42.051Z,35.97
2023-05-25T10:26:49.870Z,36.34
2023-05-25T10:28:00.362Z,36.72
2023-05-25T10:29:05.870Z,36.51
2023-05-25T10:30:11.197Z,37.94
2023-05-25T10:31:17.729Z,37.69
2023-05-25T10:32:20.563Z,37.93
2023-05-25T10:33:24.904Z,37.42
2023-05-25T10:34:28.325Z,36.97
2023-05-25T10:35:35.558Z,37.00
2023-05-25T10:36:43.011Z,37.56
2023-05-25T10:37:47.244Z,38.04
2023-05-25T10:38:52.421Z,38.09
2023-05-25T10:39:58.185Z,38.25
2023-05-25T10:41:03.460Z,38.08
2023-05-25T10:42:06.998Z,37.33
2023-05-25T10:43:10.501Z,37.70
2023-05-25T10:44:13.597Z,38.29
2023-05-25T10:45:18.014Z,38.33
2023-05-25T10:46:22.816Z,39.20
2023-05-25T10:47:30.882Z,39.32
2023-05-25T10:48:37.593Z,38.65
2023-05-25T10:49:54.609Z,39.34
2023-05-25T10:50:58.291Z,39.29
2023-05-25T10:52:02.463Z,39.75
2023-05-25T10:53:08.492Z,39.46
2023-05-25T10:54:15.064Z,39.10
2023-05-25T10:55:18.500Z,38.51
2023-05-25T10:56:21.306Z,38.41
2023-05-25T10:57:25.546Z,37.90
2023-05-25T10:58:30.310Z,38.01
2023-05-25T10:59:32.586Z,37.99
2023-05-25T11:00:36.121Z,38.15
2023-05-25T11:01:52.839Z,38.33
2023-05-25T11:02:56.514Z,38.62
2023-05-25T11:04:17.364Z,39.36
2023-05-25T11:05:34.451Z,40.14
2023-05-25T11:07:08.542Z,41.63
2023-05-25T11:08:12.754Z,42.39
2023-05-25T11:09:25.600Z,43.62
2023-05-25T11:10:52.985Z,44.24
2023-05-25T11:12:03.859Z,46.54
2023-05-25T11:13:24.103Z,49.64
2023-05-25T11:14:30.768Z,52.25
2023-05-25T11:15:33.217Z,53.95
2023-05-25T11:16:37.904Z,55.80
2023-05-25T11:17:58.268Z,57.35
2023-05-25T11:19:01.574Z,58.90
2023-05-25T11:20:06.349Z,59.59
2023-05-25T11:21:14.540Z,59.40
2023-05-25T11:22:20.764Z,59.61
2023-05-25T11:23:24.351Z,59.59
2023-05-25T11:24:27.745Z,59.79
2023-05-25T11:25:38.449Z,60.17
2023-05-25T11:26:55.969Z,60.79
2023-05-25T11:28:04.891Z,60.70
2023-05-25T11:29:14.338Z,60.71
2023-05-25T11:30:18.732Z,61.43
2023-05-25T11:31:24.597Z,61.16
2023-05-25T11:32:29.335Z,60.79
2023-05-25T11:33:34.299Z,62.02
2023-05-25T11:34:37.846Z,62.69
2023-05-25T11:35:41.691Z,62.83
2023-05-25T11:36:45.092Z,64.53
2023-05-25T11:37:51.336Z,65.57
2023-05-25T11:39:04.965Z,65.53
2023-05-25T11:40:15.395Z,66.02
2023-05-25T11:41:18.623Z,65.80
2023-05-25T11:42:22.960Z,65.21
2023-05-25T11:43:27.539Z,65.31
2023-05-25T11:44:34.008Z,66.27
2023-05-25T11:45:39.359Z,65.89
2023-05-25T11:46:44.112Z,66.54
2023-05-25T11:47:47.628Z,67.37
2023-05-25T11:48:54.114Z,67.46
2023-05-25T11:49:57.827Z,67.27
2023-05-25T11:51:06.391Z,66.60
2023-05-25T11:52:10.327Z,65.64
2023-05-25T11:53:12.884Z,65.08
2023-05-25T11:54:23.789Z,64.66
2023-05-25T11:55:27.597Z,64.77
2023-05-25T11:56:35.674Z,63.73
2023-05-25T11:57:40.419Z,62.66
2023-05-25T11:58:44.646Z,62.17
2023-05-25T11:59:52.628Z,60.46
2023-05-25T12:00:55.220Z,60.36
2023-05-25T12:02:00.704Z,59.20
2023-05-25T12:03:05.828Z,59.04
2023-05-25T12:04:12.021Z,58.27
2023-05-25T12:05:15.579Z,57.98
2023-05-25T12:06:26.425Z,57.85
2023-05-25T12:07:31.370Z,57.16
2023-05-25T12:08:33.889Z,56.45
2023-05-25T12:09:37.988Z,55.99
2023-05-25T12:10:52.050Z,55.63
2023-05-25T12:11:54.810Z,55.47
2023-05-25T12:12:58.584Z,55.93
2023-05-25T12:14:04.102Z,55.37
2023-05-25T12:15:09.579Z,54.67
2023-05-25T12:16:13.158Z,54.26
2023-05-25T12:17:17.658Z,53.71
2023-05-25T12:18:23.384Z,52.95
2023-05-25T12:19:28.389Z,52.93
2023-05-25T12:20:32.632Z,52.80
2023-05-25T12:21:37.362Z,52.74
2023-05-25T12:22:43.343Z,52.37
2023-05-25T12:23:47.019Z,51.98
2023-05-25T12:24:50.908Z,50.68
2023-05-25T12:26:08.220Z,50.36
2023-05-25T12:27:19.239Z,49.71
2023-05-25T12:28:21.628Z,49.27
2023-05-25T12:29:26.139Z,49.02
2023-05-25T12:30:28.946Z,48.20
2023-05-25T12:31:34.703Z,48.25
2023-05-25T12:32:56.132Z,47.82
2023-05-25T12:34:06.569Z,48.15
2023-05-25T12:35:11.815Z,48.18
2023-05-25T12:36:14.326Z,47.93
2023-05-25T12:37:21.393Z,47.44
2023-05-25T12:38:23.855Z,47.76
2023-05-25T12:39:38.892Z,48.09
2023-05-25T12:40:42.024Z,48.18
2023-05-25T12:41:52.448Z,48.08
2023-05-25T12:42:57.581Z,48.47
2023-05-25T12:44:01.196Z,48.47
2023-05-25T12:45:04.969Z,48.62
2023-05-25T12:46:07.967Z,48.67
2023-05-25T12:47:12.962Z,48.45
2023-05-25T12:48:16.484Z,49.21
2023-05-25T12:49:29.882Z,48.78
2023-05-25T12:50:34.747Z,48.39
2023-05-25T12:51:40.827Z,48.91
2023-05-25T12:52:46.589Z,48.40
2023-05-25T12:53:50.991Z,48.79
2023-05-25T12:54:54.362Z,48.34
2023-05-25T12:56:04.368Z,49.08
2023-05-25T12:57:08.041Z,48.84
2023-05-25T12:58:27.626Z,48.76
2023-05-25T12:59:30.842Z,49.08
2023-05-25T13:00:35.590Z,48.82
2023-05-25T13:01:38.125Z,49.44
2023-05-25T13:02:44.127Z,50.03
2023-05-25T13:03:46.945Z,50.79
2023-05-25T13:04:51.294Z,51.96
2023-05-25T13:06:01.413Z,52.87
2023-05-25T13:07:05.158Z,53.27
2023-05-25T13:08:08.693Z,53.59
2023-05-25T13:09:11.533Z,53.87
2023-05-25T13:10:16.028Z,53.50
2023-05-25T13:11:19.386Z,53.37
2023-05-25T13:12:22.666Z,53.42
2023-05-25T13:13:25.170Z,53.46
2023-05-25T13:14:30.076Z,53.98
2023-05-25T13:15:33.546Z,54.16
2023-05-25T13:16:36.129Z,54.53
2023-05-25T13:17:39.974Z,55.43
2023-05-25T13:18:42.386Z,55.77
2023-05-25T13:19:45.951Z,57.06
2023-05-25T13:20:51.787Z,57.51
2023-05-25T13:21:58.368Z,58.19
2023-05-25T13:23:03.191Z,58.94
2023-05-25T13:24:06.316Z,59.24
2023-05-25T13:25:10.598Z,59.98
2023-05-25T13:26:13.940Z,60.31
2023-05-25T13:27:17.470Z,60.96
2023-05-25T13:28:19.897Z,61.47
2023-05-25T13:29:23.996Z,61.88
2023-05-25T13:30:26.706Z,62.27
2023-05-25T13:31:30.219Z,62.52
2023-05-25T13:32:32.707Z,62.71
2023-05-25T13:33:36.178Z,63.01
2023-05-25T13:34:39.565Z,62.83
2023-05-25T13:35:46.451Z,63.02
2023-05-25T13:36:49.904Z,63.43
2023-05-25T13:37:53.620Z,63.67
2023-05-25T13:38:59.224Z,63.91
2023-05-25T13:40:03.480Z,64.41
2023-05-25T13:41:05.914Z,64.39
2023-05-25T13:42:09.446Z,64.44
2023-05-25T13:43:11.876Z,64.38
2023-05-25T13:44:17.447Z,64.13
2023-05-25T13:45:20.680Z,63.89
2023-05-25T13:46:34.325Z,63.87
2023-05-25T13:47:38.908Z,63.25
2023-05-25T13:48:48.442Z,63.36
2023-05-25T13:49:52.075Z,63.05
2023-05-25T13:50:54.476Z,62.63
2023-05-25T13:51:57.866Z,61.96
2023-05-25T13:53:01.601Z,61.61
2023-05-25T13:54:05.556Z,61.25
2023-05-25T13:55:08.941Z,61.00
2023-05-25T13:56:12.395Z,60.63
2023-05-25T13:57:14.948Z,60.02
2023-05-25T13:58:18.475Z,60.05
2023-05-25T13:59:22.195Z,59.50
2023-05-25T14:00:24.730Z,58.75